createdAt,value
2018-06-09T04:10:38.932Z,15
2018-06-09T04:11:04.455Z,15
2018-06-09T04:11:29.925Z,15
2018-06-09T04:11:55.371Z,15
2018-06-09T04:12:20.868Z,10
2018-06-09T04:12:46.327Z,10
2018-06-09T04:13:11.783Z,10
2018-06-09T04:13:37.334Z,10
2018-06-09T04:14:02.743Z,10
2018-06-09T04:14:28.211Z,10
2018-06-09T04:14:53.699Z,15
2018-06-09T04:15:19.151Z,15
2018-06-09T04:15:44.647Z,15
2018-06-09T04:16:10.127Z,15
2018-06-09T04:16:35.606Z,15
2018-06-09T04:17:01.096Z,15
2018-06-09T04:17:26.563Z,15
2018-06-09T04:17:52.033Z,15
2018-06-09T04:19:16.169Z,15
2018-06-09T04:19:41.684Z,15
2018-06-09T04:20:07.181Z,20
2018-06-09T04:20:32.683Z,20
2018-06-09T04:20:58.080Z,20
2018-06-09T04:21:23.585Z,20
2018-06-09T04:21:49.049Z,20
2018-06-09T04:22:14.501Z,20
2018-06-09T04:22:39.992Z,20
2018-06-09T04:23:05.458Z,20
2018-06-09T04:23:30.878Z,25
2018-06-09T04:23:56.369Z,25
2018-06-09T04:24:21.895Z,25
2018-06-09T04:24:47.458Z,25
2018-06-09T04:25:12.906Z,25
2018-06-09T04:26:36.933Z,30
2018-06-09T04:27:02.423Z,30
2018-06-09T04:27:27.935Z,30
2018-06-09T04:27:53.406Z,30
2018-06-09T04:28:18.875Z,30
2018-06-09T04:28:44.336Z,30
2018-06-09T04:29:09.827Z,30
2018-06-09T04:29:35.352Z,35
2018-06-09T04:30:00.812Z,35
2018-06-09T04:30:26.411Z,35
2018-06-09T04:30:51.875Z,35
2018-06-09T04:31:17.317Z,35
2018-06-09T04:31:42.806Z,35
2018-06-09T04:32:08.290Z,40
2018-06-09T04:32:33.787Z,40
2018-06-09T04:32:59.292Z,40
2018-06-09T04:33:24.798Z,45
2018-06-09T04:33:50.277Z,45
2018-06-09T04:34:15.712Z,50
2018-06-09T04:34:41.191Z,50
2018-06-09T04:35:06.660Z,50
2018-06-09T04:36:30.712Z,55
2018-06-09T04:36:56.186Z,55
2018-06-09T04:37:21.664Z,60
2018-06-09T04:37:47.155Z,60
2018-06-09T04:38:12.606Z,60
2018-06-09T04:38:38.071Z,60
2018-06-09T04:39:03.540Z,60
2018-06-09T04:39:29.009Z,60
2018-06-09T04:39:54.540Z,60
2018-06-09T04:40:19.974Z,60
2018-06-09T04:40:45.458Z,60
2018-06-09T04:41:10.936Z,60
2018-06-09T04:41:36.424Z,60
2018-06-09T04:42:01.913Z,60
2018-06-09T04:42:27.380Z,60
2018-06-09T04:42:52.885Z,60
2018-06-09T04:43:18.353Z,60
2018-06-09T04:43:43.842Z,60
2018-06-09T04:44:09.302Z,60
2018-06-09T04:44:34.754Z,65
2018-06-09T04:45:00.217Z,65
2018-06-09T04:45:25.704Z,65
2018-06-09T04:45:51.168Z,70
2018-06-09T04:46:16.723Z,70
2018-06-09T04:46:42.166Z,75
2018-06-09T04:47:07.631Z,80
2018-06-09T04:47:33.127Z,80
2018-06-09T04:47:58.597Z,85
2018-06-09T04:48:24.055Z,85
2018-06-09T04:48:49.552Z,85
2018-06-09T04:49:15.020Z,85
2018-06-09T04:49:40.507Z,90
2018-06-09T04:50:06.025Z,90
2018-06-09T04:50:31.521Z,95
2018-06-09T04:50:56.987Z,95
2018-06-09T04:51:22.477Z,95
2018-06-09T04:51:47.953Z,100
2018-06-09T04:52:13.485Z,100
2018-06-09T04:52:38.892Z,100
2018-06-09T04:53:04.406Z,105
2018-06-09T04:53:29.961Z,105
2018-06-09T04:53:55.426Z,105
2018-06-09T04:54:20.925Z,105
2018-06-09T04:54:46.353Z,105
2018-06-09T04:55:11.857Z,105
2018-06-09T04:55:37.336Z,105
2018-06-09T04:56:02.787Z,105
2018-06-09T04:56:28.244Z,105
2018-06-09T04:56:53.727Z,105
2018-06-09T04:57:19.197Z,100
2018-06-09T04:57:44.738Z,100
2018-06-09T04:58:10.234Z,95
2018-06-09T04:58:35.704Z,95
2018-06-09T04:59:01.222Z,90
2018-06-09T04:59:26.693Z,90
2018-06-09T04:59:52.190Z,90
2018-06-09T05:00:17.685Z,85
2018-06-09T05:00:43.219Z,85
2018-06-09T05:01:08.687Z,85
2018-06-09T05:01:34.206Z,85
2018-06-09T05:01:59.686Z,85
2018-06-09T05:03:08.748Z,85
2018-06-09T05:03:34.233Z,85
2018-06-09T05:03:59.723Z,90
2018-06-09T05:05:08.430Z,90
2018-06-09T05:05:33.917Z,95
2018-06-09T05:05:59.431Z,95
2018-06-09T05:06:24.898Z,100
2018-06-09T05:06:50.322Z,100
2018-06-09T05:07:15.833Z,100
2018-06-09T05:08:34.714Z,105
2018-06-09T05:09:00.207Z,100
2018-06-09T05:09:25.733Z,100
2018-06-09T05:09:51.245Z,100
2018-06-09T05:10:16.750Z,100
2018-06-09T05:10:42.252Z,100
2018-06-09T05:11:07.762Z,100
2018-06-09T05:11:33.247Z,95
2018-06-09T05:11:58.765Z,95
2018-06-09T05:12:24.242Z,95
2018-06-09T05:12:49.743Z,95
2018-06-09T05:13:15.244Z,95
2018-06-09T05:13:40.724Z,95
2018-06-09T05:14:06.250Z,95
2018-06-09T05:14:31.787Z,95
2018-06-09T05:14:57.290Z,100
2018-06-09T05:15:22.785Z,100
2018-06-09T05:15:48.264Z,100
2018-06-09T05:16:13.808Z,105
2018-06-09T05:16:39.324Z,105
2018-06-09T05:17:04.814Z,110
2018-06-09T05:17:30.307Z,115
2018-06-09T05:17:55.780Z,120
2018-06-09T05:18:21.335Z,125
2018-06-09T05:18:46.793Z,125
2018-06-09T05:19:12.305Z,130
2018-06-09T05:19:37.766Z,135
2018-06-09T05:20:03.245Z,140
2018-06-09T05:20:28.807Z,145
2018-06-09T05:20:54.286Z,150
2018-06-09T05:21:19.806Z,155
2018-06-09T05:21:45.348Z,160
2018-06-09T05:22:10.839Z,160
2018-06-09T05:22:36.344Z,165
2018-06-09T05:23:01.825Z,170
2018-06-09T05:23:27.344Z,175
2018-06-09T05:23:52.786Z,180
2018-06-09T05:24:18.262Z,185
2018-06-09T05:24:43.763Z,195
2018-06-09T05:25:09.286Z,200
2018-06-09T05:25:34.800Z,210
2018-06-09T05:26:00.365Z,220
2018-06-09T05:26:25.843Z,225
2018-06-09T05:26:51.308Z,235
2018-06-09T05:27:16.796Z,245
2018-06-09T05:27:42.311Z,255
2018-06-09T05:28:07.903Z,265
2018-06-09T05:28:33.262Z,275
2018-06-09T05:28:58.752Z,285
2018-06-09T05:29:24.261Z,300
2018-06-09T05:29:49.774Z,295
2018-06-09T05:30:15.213Z,285
2018-06-09T05:30:40.681Z,285
2018-06-09T05:31:06.195Z,290
2018-06-09T05:31:31.744Z,290
2018-06-09T05:31:57.177Z,285
2018-06-09T05:32:22.642Z,280
2018-06-09T05:32:48.106Z,280
2018-06-09T05:33:13.614Z,275
2018-06-09T05:33:39.025Z,275
2018-06-09T05:34:04.547Z,275
2018-06-09T05:34:30.050Z,270
2018-06-09T05:34:55.495Z,270
2018-06-09T05:35:20.967Z,275
2018-06-09T05:35:46.440Z,275
2018-06-09T05:36:11.915Z,275
2018-06-09T05:37:41.001Z,305
2018-06-09T05:38:06.487Z,310
2018-06-09T05:38:31.990Z,315
2018-06-09T05:39:56.020Z,325
2018-06-09T05:40:21.537Z,330
2018-06-09T05:40:47.024Z,330
2018-06-09T05:41:12.535Z,330
2018-06-09T05:41:38.276Z,330
2018-06-09T05:42:03.734Z,320
2018-06-09T05:42:29.200Z,315
2018-06-09T05:42:54.659Z,310
2018-06-09T05:43:20.140Z,305
2018-06-09T05:43:45.644Z,295
2018-06-09T05:44:11.071Z,295
2018-06-09T05:45:24.856Z,285
2018-06-09T05:45:50.353Z,285
2018-06-09T05:46:15.828Z,285
2018-06-09T05:46:41.336Z,290
2018-06-09T05:47:06.837Z,285
2018-06-09T05:47:32.355Z,285
2018-06-09T05:47:57.833Z,290
2018-06-09T05:48:23.295Z,295
2018-06-09T05:48:48.775Z,300
2018-06-09T05:49:14.235Z,305
2018-06-09T05:49:39.708Z,310
2018-06-09T05:50:05.233Z,315
2018-06-09T05:50:30.783Z,320
2018-06-09T05:50:56.257Z,325
2018-06-09T05:51:21.776Z,330
2018-06-09T05:51:47.236Z,340
2018-06-09T05:53:01.048Z,345
2018-06-09T05:53:26.545Z,350
2018-06-09T05:53:51.993Z,350
2018-06-09T05:54:17.467Z,350
2018-06-09T05:54:42.982Z,350
2018-06-09T05:55:08.421Z,350
2018-06-09T05:55:33.942Z,340
2018-06-09T05:55:59.422Z,335
2018-06-09T05:56:24.872Z,330
2018-06-09T05:56:50.376Z,320
2018-06-09T05:57:15.856Z,310
2018-06-09T05:57:41.382Z,305
2018-06-09T05:58:06.951Z,295
2018-06-09T05:58:32.448Z,290
2018-06-09T05:58:57.904Z,285
2018-06-09T05:59:23.421Z,280
2018-06-09T05:59:48.902Z,270
2018-06-09T06:00:14.398Z,265
2018-06-09T06:00:39.877Z,255
2018-06-09T06:01:05.355Z,250
2018-06-09T06:01:30.830Z,245
2018-06-09T06:01:56.295Z,245
2018-06-09T06:02:21.797Z,235
2018-06-09T06:02:47.256Z,230
2018-06-09T06:03:12.732Z,225
2018-06-09T06:03:38.224Z,220
2018-06-09T06:04:03.727Z,220
2018-06-09T06:04:29.185Z,215
2018-06-09T06:04:54.684Z,215
2018-06-09T06:05:20.203Z,210
2018-06-09T06:05:45.699Z,205
2018-06-09T06:06:11.192Z,200
2018-06-09T06:07:24.967Z,190
2018-06-09T06:07:50.462Z,185
2018-06-09T06:08:16.085Z,180
2018-06-09T06:08:41.592Z,180
2018-06-09T06:09:07.085Z,180
2018-06-09T06:09:32.544Z,175
2018-06-09T06:09:58.031Z,175
2018-06-09T06:10:23.539Z,175
2018-06-09T06:10:49.019Z,180
2018-06-09T06:11:14.499Z,180
2018-06-09T06:11:40.004Z,185
2018-06-09T06:12:05.586Z,185
2018-06-09T06:12:31.069Z,190
2018-06-09T06:12:56.547Z,195
2018-06-09T06:13:22.031Z,195
2018-06-09T06:13:47.515Z,200
2018-06-09T06:14:12.996Z,205
2018-06-09T06:14:38.477Z,205
2018-06-09T06:15:03.955Z,210
2018-06-09T06:15:29.426Z,210
2018-06-09T06:15:54.900Z,215
2018-06-09T06:17:13.856Z,220
2018-06-09T06:17:39.335Z,225
2018-06-09T06:18:04.845Z,230
2018-06-09T06:18:30.308Z,230
2018-06-09T06:18:55.785Z,235
2018-06-09T06:19:21.274Z,240
2018-06-09T06:19:46.770Z,245
2018-06-09T06:21:05.644Z,265
2018-06-09T06:21:31.190Z,270
2018-06-09T06:21:56.644Z,270
2018-06-09T06:22:22.072Z,275
2018-06-09T06:22:47.556Z,275
2018-06-09T06:23:13.071Z,275
2018-06-09T06:23:38.565Z,275
2018-06-09T06:24:04.032Z,275
2018-06-09T06:24:29.528Z,270
2018-06-09T06:24:55.023Z,270
2018-06-09T06:25:20.733Z,265
2018-06-09T06:25:46.132Z,265
2018-06-09T06:26:11.627Z,260
2018-06-09T06:26:37.251Z,255
2018-06-09T06:27:02.616Z,255
2018-06-09T06:27:28.053Z,250
2018-06-09T06:27:53.622Z,250
2018-06-09T06:28:19.322Z,250
2018-06-09T06:28:44.804Z,250
2018-06-09T06:29:10.369Z,250
2018-06-09T06:29:36.275Z,250
2018-06-09T06:30:01.465Z,250
2018-06-09T06:30:27.204Z,255
2018-06-09T06:30:52.575Z,255
2018-06-09T06:31:18.110Z,255
2018-06-09T06:31:43.578Z,260
2018-06-09T06:32:09.040Z,265
2018-06-09T06:32:34.526Z,270
2018-06-09T06:33:00.035Z,275
2018-06-09T06:33:25.543Z,275
2018-06-09T06:33:50.922Z,275
2018-06-09T06:34:16.394Z,280
2018-06-09T06:34:41.886Z,280
2018-06-09T06:35:07.382Z,280
2018-06-09T06:35:32.856Z,280
2018-06-09T06:35:58.342Z,280
2018-06-09T06:36:23.819Z,285
2018-06-09T06:36:49.312Z,280
2018-06-09T06:37:14.852Z,280
2018-06-09T06:37:40.286Z,280
2018-06-09T06:38:05.738Z,275
2018-06-09T06:38:31.195Z,275
2018-06-09T06:38:56.677Z,275
2018-06-09T06:39:22.129Z,270
2018-06-09T06:39:47.587Z,270
2018-06-09T06:40:13.125Z,270
2018-06-09T06:40:38.565Z,265
2018-06-09T06:41:04.090Z,265
2018-06-09T06:41:29.572Z,260
2018-06-09T06:41:55.030Z,260
2018-06-09T06:42:20.551Z,255
2018-06-09T06:42:46.018Z,255
2018-06-09T06:43:11.520Z,250
2018-06-09T06:43:36.955Z,250
2018-06-09T06:44:02.504Z,245
2018-06-09T06:44:28.038Z,240
2018-06-09T06:44:54.591Z,240
2018-06-09T06:45:20.491Z,240
2018-06-09T06:45:45.827Z,240
2018-06-09T06:46:11.453Z,240
2018-06-09T06:46:37.156Z,240
2018-06-09T06:47:03.317Z,240
2018-06-09T06:47:29.027Z,240
2018-06-09T06:47:54.995Z,240
2018-06-09T06:48:20.757Z,245
2018-06-09T06:48:46.506Z,245
2018-06-09T06:49:12.275Z,245
2018-06-09T06:49:38.085Z,245
2018-06-09T06:50:06.332Z,245
2018-06-09T06:50:32.114Z,245
2018-06-09T06:50:58.164Z,250
2018-06-09T06:51:24.464Z,255
2018-06-09T06:51:50.074Z,255
2018-06-09T06:52:15.985Z,255
2018-06-09T06:52:41.941Z,255
2018-06-09T06:53:08.677Z,270
2018-06-09T06:53:35.349Z,255
2018-06-09T06:54:01.164Z,260
2018-06-09T06:54:26.713Z,275
2018-06-09T06:54:52.788Z,280
2018-06-09T06:55:18.480Z,280
2018-06-09T06:55:44.115Z,280
2018-06-09T06:56:10.063Z,285
2018-06-09T06:56:35.687Z,330
2018-06-09T06:57:01.840Z,320
2018-06-09T06:57:27.356Z,305
2018-06-09T06:57:53.083Z,315
2018-06-09T06:58:18.707Z,325
2018-06-09T06:58:44.515Z,330
2018-06-09T06:59:10.459Z,360
2018-06-09T06:59:36.213Z,410
2018-06-09T07:00:01.848Z,370
2018-06-09T07:00:27.770Z,400
2018-06-09T07:00:53.849Z,460
2018-06-09T07:01:19.363Z,410
2018-06-09T07:01:45.089Z,410
2018-06-09T07:02:10.947Z,405
2018-06-09T07:02:36.545Z,400
2018-06-09T07:03:02.121Z,405
2018-06-09T07:03:27.843Z,425
2018-06-09T07:03:53.920Z,455
2018-06-09T07:04:19.658Z,425
2018-06-09T07:04:45.336Z,420
2018-06-09T07:05:11.103Z,410
2018-06-09T07:05:36.719Z,400
2018-06-09T07:06:02.187Z,390
2018-06-09T07:06:27.579Z,385
2018-06-09T07:06:53.629Z,385
2018-06-09T07:07:20.061Z,385
2018-06-09T07:07:47.104Z,395
2018-06-09T07:08:13.952Z,400
2018-06-09T07:08:39.831Z,405
2018-06-09T07:09:05.887Z,410
2018-06-09T07:09:31.614Z,420
2018-06-09T07:09:57.378Z,425
2018-06-09T07:10:23.228Z,435
2018-06-09T07:10:49.368Z,435
2018-06-09T07:11:14.907Z,455
2018-06-09T07:11:40.587Z,450
2018-06-09T07:12:06.584Z,460
2018-06-09T07:12:32.938Z,465
2018-06-09T07:12:58.825Z,465
2018-06-09T07:13:24.311Z,475
2018-06-09T07:13:49.725Z,475
2018-06-09T07:14:15.903Z,470
2018-06-09T07:14:41.741Z,465
2018-06-09T07:15:07.438Z,480
2018-06-09T07:15:33.272Z,460
2018-06-09T07:15:59.051Z,455
2018-06-09T07:16:25.344Z,445
2018-06-09T07:17:51.109Z,445
2018-06-09T07:18:17.197Z,445
2018-06-09T07:18:43.136Z,450
2018-06-09T07:19:08.930Z,450
2018-06-09T07:19:34.695Z,455
2018-06-09T07:20:00.457Z,485
2018-06-09T07:20:26.077Z,495
2018-06-09T07:20:51.438Z,520
2018-06-09T07:21:17.349Z,535
2018-06-09T07:21:44.093Z,540
2018-06-09T07:22:09.573Z,545
2018-06-09T07:22:35.170Z,535
2018-06-09T07:23:01.827Z,520
2018-06-09T07:23:28.246Z,535
2018-06-09T07:23:53.416Z,550
2018-06-09T07:24:19.371Z,555
2018-06-09T07:24:45.211Z,555
2018-06-09T07:25:10.753Z,560
2018-06-09T07:25:36.392Z,560
2018-06-09T07:26:02.433Z,560
2018-06-09T07:26:28.326Z,555
2018-06-09T07:26:54.143Z,560
2018-06-09T07:27:19.653Z,560
2018-06-09T07:27:45.483Z,560
2018-06-09T07:28:10.968Z,560
2018-06-09T07:28:36.697Z,550
2018-06-09T07:29:02.051Z,570
2018-06-09T07:29:28.017Z,555
2018-06-09T07:29:53.877Z,485
2018-06-09T07:30:19.453Z,450
2018-06-09T07:30:45.404Z,440
2018-06-09T07:31:10.766Z,435
2018-06-09T07:31:36.869Z,430
2018-06-09T07:32:02.386Z,435
2018-06-09T07:32:28.019Z,450
2018-06-09T07:32:53.804Z,460
2018-06-09T07:33:20.310Z,530
2018-06-09T07:33:46.248Z,480
2018-06-09T07:34:12.125Z,525
2018-06-09T07:34:37.613Z,510
2018-06-09T07:35:03.295Z,525
2018-06-09T07:35:29.482Z,660
2018-06-09T07:35:55.384Z,850
2018-06-09T07:36:20.933Z,940
2018-06-09T07:36:46.696Z,985
2018-06-09T07:37:13.365Z,795
2018-06-09T07:37:38.972Z,895
2018-06-09T07:38:05.332Z,845
2018-06-09T07:38:31.147Z,860
2018-06-09T07:38:56.867Z,865
2018-06-09T07:39:22.580Z,860
2018-06-09T07:39:48.500Z,855
2018-06-09T07:40:14.336Z,850
2018-06-09T07:40:40.028Z,880
2018-06-09T07:41:05.903Z,935
2018-06-09T07:41:31.439Z,960
2018-06-09T07:41:57.104Z,920
2018-06-09T07:42:22.953Z,980
2018-06-09T07:42:49.476Z,1165
2018-06-09T07:43:14.815Z,1235
2018-06-09T07:43:40.432Z,1285
2018-06-09T07:44:06.340Z,1390
2018-06-09T07:44:32.061Z,1390
2018-06-09T07:44:57.659Z,1390
2018-06-09T07:45:23.258Z,1335
2018-06-09T07:45:48.730Z,1290
2018-06-09T07:46:14.216Z,1275
2018-06-09T07:46:39.856Z,1275
2018-06-09T07:47:05.232Z,1285
2018-06-09T07:47:30.728Z,1325
2018-06-09T07:47:56.195Z,1345
2018-06-09T07:48:21.827Z,1355
2018-06-09T07:48:47.264Z,1355
2018-06-09T07:49:12.789Z,1405
2018-06-09T07:49:38.311Z,1380
2018-06-09T07:50:03.758Z,1425
2018-06-09T07:50:29.452Z,1445
2018-06-09T07:50:55.098Z,1445
2018-06-09T07:51:21.251Z,1430
2018-06-09T07:51:46.671Z,1410
2018-06-09T07:52:12.416Z,1385
2018-06-09T07:52:38.058Z,1305
2018-06-09T07:53:03.809Z,1150
2018-06-09T07:53:29.842Z,1090
2018-06-09T07:53:55.528Z,1145
2018-06-09T07:54:21.348Z,1185
2018-06-09T07:54:47.105Z,1170
2018-06-09T07:55:12.793Z,1100
2018-06-09T07:55:38.497Z,1120
2018-06-09T07:56:04.303Z,1075
2018-06-09T07:56:29.978Z,1065
2018-06-09T07:56:55.577Z,1065
2018-06-09T07:57:21.329Z,1065
2018-06-09T07:57:47.220Z,1050
2018-06-09T07:58:12.791Z,1070
2018-06-09T07:58:38.508Z,1080
2018-06-09T07:59:04.233Z,1090
2018-06-09T07:59:29.981Z,1085
2018-06-09T07:59:55.859Z,1075
2018-06-09T08:00:21.394Z,1110
2018-06-09T08:00:46.977Z,1145
2018-06-09T08:01:12.680Z,1130
2018-06-09T08:01:38.596Z,1155
2018-06-09T08:02:04.009Z,1155
2018-06-09T08:02:29.756Z,1145
2018-06-09T08:02:55.591Z,1100
2018-06-09T08:03:21.112Z,1085
2018-06-09T08:04:50.664Z,1005
2018-06-09T08:05:16.181Z,980
2018-06-09T08:05:41.705Z,945
2018-06-09T08:06:07.800Z,960
2018-06-09T08:06:33.475Z,925
2018-06-09T08:06:59.066Z,975
2018-06-09T08:07:24.767Z,970
2018-06-09T08:08:54.046Z,1165
2018-06-09T08:09:19.519Z,1170
2018-06-09T08:09:45.043Z,1190
2018-06-09T08:10:10.716Z,1215
2018-06-09T08:10:36.084Z,1135
2018-06-09T08:11:01.620Z,1045
2018-06-09T08:11:27.221Z,940
2018-06-09T08:11:52.589Z,795
2018-06-09T08:12:18.431Z,675
2018-06-09T08:12:44.068Z,605
2018-06-09T08:13:09.657Z,575
2018-06-09T08:13:35.117Z,560
2018-06-09T08:14:01.058Z,555
2018-06-09T08:14:26.568Z,560
2018-06-09T08:14:52.399Z,550
2018-06-09T08:15:17.963Z,555
2018-06-09T08:15:43.572Z,570
2018-06-09T08:16:09.273Z,575
2018-06-09T08:16:35.218Z,570
2018-06-09T08:17:00.717Z,570
2018-06-09T08:17:26.335Z,565
2018-06-09T08:17:52.362Z,570
2018-06-09T08:18:18.167Z,575
2018-06-09T08:18:44.032Z,580
2018-06-09T08:19:09.530Z,570
2018-06-09T08:19:35.084Z,570
2018-06-09T08:20:00.946Z,570
2018-06-09T08:20:26.511Z,565
2018-06-09T08:20:51.997Z,565
2018-06-09T08:21:17.502Z,545
2018-06-09T08:21:43.168Z,530
2018-06-09T08:22:08.779Z,530
2018-06-09T08:22:34.415Z,515
2018-06-09T08:23:00.266Z,520
2018-06-09T08:23:25.968Z,520
2018-06-09T08:23:51.737Z,515
2018-06-09T08:24:17.532Z,525
2018-06-09T08:24:42.964Z,525
2018-06-09T08:25:09.050Z,520
2018-06-09T08:25:34.300Z,510
2018-06-09T08:26:00.004Z,500
2018-06-09T08:26:25.775Z,490
2018-06-09T08:26:51.571Z,480
2018-06-09T08:27:17.687Z,475
2018-06-09T08:27:43.181Z,465
2018-06-09T08:28:09.362Z,450
2018-06-09T08:28:34.920Z,445
2018-06-09T08:29:01.192Z,445
2018-06-09T08:29:53.034Z,425
2018-06-09T08:30:18.703Z,425
2018-06-09T08:30:44.341Z,425
2018-06-09T08:31:10.163Z,425
2018-06-09T08:31:36.438Z,435
2018-06-09T08:32:02.075Z,430
2018-06-09T08:32:27.757Z,430
2018-06-09T08:32:53.811Z,425
2018-06-09T08:33:19.718Z,410
2018-06-09T08:33:45.295Z,420
2018-06-09T08:34:10.919Z,425
2018-06-09T08:34:36.666Z,405
2018-06-09T08:35:02.343Z,405
2018-06-09T08:35:28.303Z,390
2018-06-09T08:35:53.687Z,395
2018-06-09T08:36:19.755Z,410
2018-06-09T08:36:45.214Z,405
2018-06-09T08:37:11.404Z,410
2018-06-09T08:37:38.433Z,395
2018-06-09T08:38:06.315Z,395
2018-06-09T08:38:33.508Z,400
2018-06-09T08:38:59.792Z,385
2018-06-09T08:39:27.514Z,385
2018-06-09T08:39:55.523Z,390
2018-06-09T08:40:22.252Z,385
2018-06-09T08:40:48.219Z,380
2018-06-09T08:41:13.919Z,385
2018-06-09T08:41:39.921Z,390
2018-06-09T08:42:05.496Z,385
2018-06-09T08:42:31.049Z,395
2018-06-09T08:42:57.022Z,395
2018-06-09T08:43:23.644Z,390
2018-06-09T08:43:49.265Z,385
2018-06-09T08:44:15.157Z,385
2018-06-09T08:44:41.169Z,385
2018-06-09T08:45:07.062Z,395
2018-06-09T08:45:32.701Z,390
2018-06-09T08:45:58.597Z,395
2018-06-09T08:46:24.063Z,395
2018-06-09T08:46:49.630Z,405
2018-06-09T08:47:15.419Z,400
2018-06-09T08:47:41.208Z,420
2018-06-09T08:48:07.388Z,425
2018-06-09T08:48:33.624Z,440
2018-06-09T08:48:59.768Z,465
2018-06-09T08:49:25.329Z,455
2018-06-09T08:49:51.391Z,450
2018-06-09T08:50:16.812Z,450
2018-06-09T08:50:42.539Z,450
2018-06-09T08:51:08.449Z,455
2018-06-09T08:51:34.169Z,455
2018-06-09T08:51:59.855Z,455
2018-06-09T08:52:25.658Z,455
2018-06-09T08:52:51.475Z,460
2018-06-09T08:53:17.010Z,465
2018-06-09T08:53:43.284Z,470
2018-06-09T08:54:08.635Z,485
2018-06-09T08:54:34.277Z,490
2018-06-09T08:54:59.777Z,495
2018-06-09T08:55:25.755Z,505
2018-06-09T08:55:51.356Z,515
2018-06-09T08:56:17.201Z,520
2018-06-09T08:56:42.862Z,525
2018-06-09T08:57:08.509Z,530
2018-06-09T08:57:34.872Z,530
2018-06-09T08:58:00.560Z,530
2018-06-09T08:58:26.902Z,525
2018-06-09T08:58:53.049Z,520
2018-06-09T08:59:18.755Z,515
2018-06-09T08:59:44.973Z,515
2018-06-09T09:00:10.992Z,525
2018-06-09T09:00:36.588Z,525
2018-06-09T09:01:02.370Z,540
2018-06-09T09:01:27.959Z,560
2018-06-09T09:01:54.059Z,565
2018-06-09T09:02:19.529Z,560
2018-06-09T09:02:45.570Z,565
2018-06-09T09:03:11.332Z,575
2018-06-09T09:03:37.014Z,590
2018-06-09T09:04:02.676Z,580
2018-06-09T09:04:28.340Z,570
2018-06-09T09:04:53.778Z,575
2018-06-09T09:05:19.493Z,570
2018-06-09T09:05:45.090Z,565
2018-06-09T09:06:10.866Z,560
2018-06-09T09:06:36.898Z,545
2018-06-09T09:07:02.324Z,545
2018-06-09T09:07:28.217Z,540
2018-06-09T09:07:53.847Z,535
2018-06-09T09:08:19.690Z,525
2018-06-09T09:08:45.226Z,520
2018-06-09T09:09:11.278Z,510
2018-06-09T09:09:36.872Z,515
2018-06-09T09:10:02.408Z,510
2018-06-09T09:10:28.464Z,505
2018-06-09T09:10:54.347Z,500
2018-06-09T09:11:20.087Z,495
2018-06-09T09:11:47.009Z,470
2018-06-09T09:12:13.521Z,475
2018-06-09T09:12:39.910Z,465
2018-06-09T09:13:05.608Z,450
2018-06-09T09:13:31.689Z,450
2018-06-09T09:13:57.546Z,450
2018-06-09T09:14:23.481Z,445
2018-06-09T09:14:49.539Z,430
2018-06-09T09:15:15.096Z,430
2018-06-09T09:15:41.424Z,440
2018-06-09T09:16:07.396Z,420
2018-06-09T09:16:33.167Z,435
2018-06-09T09:16:59.171Z,430
2018-06-09T09:17:24.781Z,435
2018-06-09T09:17:50.733Z,440
2018-06-09T09:18:16.738Z,435
2018-06-09T09:18:42.318Z,435
2018-06-09T09:19:08.058Z,440
2018-06-09T09:19:34.580Z,445
2018-06-09T09:20:00.788Z,455
2018-06-09T09:20:27.756Z,465
2018-06-09T09:20:54.918Z,470
2018-06-09T09:21:21.018Z,470
2018-06-09T09:21:47.415Z,470
2018-06-09T09:22:13.743Z,475
2018-06-09T09:22:39.618Z,490
2018-06-09T09:23:05.910Z,500
2018-06-09T09:23:31.445Z,515
2018-06-09T09:23:57.741Z,525
2018-06-09T09:24:23.638Z,530
2018-06-09T09:24:49.632Z,530
2018-06-09T09:25:15.867Z,535
2018-06-09T09:25:41.461Z,535
2018-06-09T09:26:07.137Z,550
2018-06-09T09:26:32.887Z,550
2018-06-09T09:26:59.277Z,535
2018-06-09T09:27:26.021Z,545
2018-06-09T09:27:51.536Z,535
2018-06-09T09:28:17.594Z,515
2018-06-09T09:28:43.401Z,510
2018-06-09T09:29:09.217Z,520
2018-06-09T09:29:35.413Z,515
2018-06-09T09:30:01.470Z,505
2018-06-09T09:30:27.693Z,500
2018-06-09T09:30:53.436Z,510
2018-06-09T09:31:19.580Z,520
2018-06-09T09:31:44.948Z,530
2018-06-09T09:32:11.543Z,550
2018-06-09T09:32:36.987Z,555
2018-06-09T09:33:03.418Z,530
2018-06-09T09:33:29.411Z,520
2018-06-09T09:33:55.524Z,530
2018-06-09T09:34:21.389Z,520
2018-06-09T09:34:47.200Z,490
2018-06-09T09:35:13.461Z,475
2018-06-09T09:35:39.638Z,470
2018-06-09T09:36:05.410Z,465
2018-06-09T09:36:31.258Z,465
2018-06-09T09:36:57.125Z,465
2018-06-09T09:37:23.350Z,465
2018-06-09T09:37:50.219Z,455
2018-06-09T09:38:16.246Z,450
2018-06-09T09:38:42.468Z,450
2018-06-09T09:39:08.607Z,445
2018-06-09T09:39:34.857Z,450
2018-06-09T09:40:01.257Z,445
2018-06-09T09:40:27.001Z,445
2018-06-09T09:40:53.316Z,450
2018-06-09T09:41:18.928Z,450
2018-06-09T09:41:44.797Z,445
2018-06-09T09:42:11.026Z,445
2018-06-09T09:42:37.288Z,440
2018-06-09T09:43:03.309Z,440
2018-06-09T09:43:29.173Z,445
2018-06-09T09:43:55.707Z,455
2018-06-09T09:44:21.001Z,455
2018-06-09T09:44:47.077Z,465
2018-06-09T09:45:12.785Z,465
2018-06-09T09:45:38.779Z,470
2018-06-09T09:46:05.371Z,475
2018-06-09T09:46:31.138Z,485
2018-06-09T09:46:57.211Z,490
2018-06-09T09:47:24.005Z,500
2018-06-09T09:47:50.228Z,515
2018-06-09T09:48:16.232Z,540
2018-06-09T09:48:42.043Z,545
2018-06-09T09:49:07.995Z,560
2018-06-09T09:49:34.637Z,565
2018-06-09T09:50:00.681Z,565
2018-06-09T09:50:26.967Z,570
2018-06-09T09:50:52.583Z,545
2018-06-09T09:51:18.930Z,530
2018-06-09T09:51:44.516Z,515
2018-06-09T09:52:10.355Z,505
2018-06-09T09:52:35.823Z,505
2018-06-09T09:53:01.948Z,500
2018-06-09T09:53:27.899Z,505
2018-06-09T09:53:53.819Z,500
2018-06-09T09:55:26.294Z,495
2018-06-09T09:55:53.028Z,495
2018-06-09T09:56:18.877Z,495
2018-06-09T09:56:44.370Z,495
2018-06-09T09:57:09.984Z,490
2018-06-09T09:57:35.579Z,490
2018-06-09T09:58:01.109Z,480
2018-06-09T09:58:26.850Z,475
2018-06-09T09:58:52.393Z,470
2018-06-09T09:59:17.822Z,470
2018-06-09T09:59:43.521Z,470
2018-06-09T10:00:09.293Z,465
2018-06-09T10:00:35.434Z,460
2018-06-09T10:01:00.998Z,460
2018-06-09T10:01:27.967Z,460
2018-06-09T10:01:54.078Z,465
2018-06-09T10:02:19.721Z,470
2018-06-09T10:02:45.251Z,480
2018-06-09T10:03:10.742Z,490
2018-06-09T10:03:36.596Z,490
2018-06-09T10:04:02.286Z,490
2018-06-09T10:04:27.879Z,495
2018-06-09T10:04:53.456Z,500
2018-06-09T10:05:19.216Z,500
2018-06-09T10:05:44.580Z,500
2018-06-09T10:06:10.229Z,500
2018-06-09T10:06:35.959Z,500
2018-06-09T10:07:01.530Z,505
2018-06-09T10:07:27.822Z,510
2018-06-09T10:07:53.408Z,520
2018-06-09T10:08:19.506Z,515
2018-06-09T10:08:45.417Z,520
2018-06-09T10:09:11.744Z,530
2018-06-09T10:09:37.343Z,525
2018-06-09T10:10:03.242Z,520
2018-06-09T10:10:29.365Z,535
2018-06-09T10:10:55.595Z,520
2018-06-09T10:11:22.070Z,515
2018-06-09T10:12:17.483Z,505
2018-06-09T10:12:42.990Z,510
2018-06-09T10:13:08.606Z,505
2018-06-09T10:13:34.288Z,500
2018-06-09T10:13:59.866Z,500
2018-06-09T10:14:25.351Z,490
2018-06-09T10:14:50.942Z,490
2018-06-09T10:15:16.532Z,490
2018-06-09T10:15:42.124Z,490
2018-06-09T10:16:07.608Z,480
2018-06-09T10:16:33.367Z,475
2018-06-09T10:16:59.063Z,470
2018-06-09T10:17:25.173Z,465
2018-06-09T10:17:51.132Z,465
2018-06-09T10:18:17.071Z,460
2018-06-09T10:18:43.033Z,455
2018-06-09T10:19:09.660Z,450
2018-06-09T10:19:35.814Z,450
2018-06-09T10:20:00.777Z,445
2018-06-09T10:20:27.638Z,440
2018-06-09T10:20:53.469Z,440
2018-06-09T10:21:19.576Z,440
2018-06-09T10:21:46.925Z,435
2018-06-09T10:22:12.590Z,435